Time;durP1;ratioP1;P1;durP2;ratioP2;P2;SDS_P1;SDS_P2;PMS_P1;PMS_P2;Temp;Humidity;BMP_temperature;BMP_pressure;BME280_temperature;BME280_humidity;BME280_pressure;Samples;Min_cycle;Max_cycle;Signal;HPM_P1;HPM_P2
2023/10/28 00:01:31;;;;;;;62.83;38.05;;;10.60;99.90;;;;;;5023995;28;20053;-85
2023/10/28 00:03:57;;;;;;;89.13;41.10;;;10.60;99.90;;;;;;5019367;28;20037;-84
2023/10/28 00:06:23;;;;;;;55.55;35.78;;;10.50;99.90;;;;;;5016957;28;20067;-85
2023/10/28 00:08:49;;;;;;;69.35;39.05;;;10.50;99.90;;;;;;5011169;28;20044;-85
2023/10/28 00:11:19;;;;;;;151.85;47.95;;;10.50;99.90;;;;;;5017792;28;20076;-84
2023/10/28 00:13:45;;;;;;;63.15;38.03;;;10.50;99.90;;;;;;5014367;28;20062;-84
2023/10/28 00:16:12;;;;;;;60.42;37.22;;;10.50;99.90;;;;;;5022720;28;20033;-85
2023/10/28 00:18:38;;;;;;;102.93;45.78;;;10.50;99.90;;;;;;5002852;28;20048;-84
2023/10/28 00:21:07;;;;;;;63.83;40.50;;;10.50;99.90;;;;;;5005652;28;20041;-85
2023/10/28 00:23:36;;;;;;;83.00;43.07;;;10.50;99.90;;;;;;5002501;28;20057;-84
2023/10/28 00:26:04;;;;;;;132.13;49.80;;;10.50;99.90;;;;;;5019917;28;20033;-84
2023/10/28 00:28:33;;;;;;;85.13;44.45;;;10.50;99.90;;;;;;5009525;28;20349;-84
2023/10/28 00:31:03;;;;;;;165.98;51.50;;;10.50;99.90;;;;;;5016284;28;20484;-83
2023/10/28 00:33:30;;;;;;;71.85;41.72;;;10.50;99.90;;;;;;5011414;28;20562;-84
2023/10/28 00:35:56;;;;;;;68.50;41.38;;;10.50;99.90;;;;;;5005950;28;20103;-84
2023/10/28 00:38:22;;;;;;;156.20;49.90;;;10.50;99.90;;;;;;5024060;28;20053;-85
2023/10/28 00:40:51;;;;;;;160.73;53.22;;;10.50;99.90;;;;;;5008190;28;20480;-83
2023/10/28 00:43:26;;;;;;;98.18;46.88;;;10.50;99.90;;;;;;5004895;28;20069;-85
2023/10/28 00:45:54;;;;;;;101.78;47.35;;;10.50;99.90;;;;;;5017429;28;20076;-84
2023/10/28 00:48:20;;;;;;;103.80;49.78;;;10.50;99.90;;;;;;4994276;28;20104;-83
2023/10/28 00:50:45;;;;;;;68.88;42.90;;;10.50;99.90;;;;;;5021256;28;20334;-84
2023/10/28 00:53:11;;;;;;;76.40;43.25;;;10.50;99.90;;;;;;5002740;28;21807;-84
2023/10/28 00:55:37;;;;;;;73.78;43.40;;;10.50;99.90;;;;;;5020791;28;20136;-84
2023/10/28 00:58:03;;;;;;;88.95;45.58;;;10.50;99.90;;;;;;5008586;28;20138;-84
2023/10/28 01:00:29;;;;;;;103.13;46.80;;;10.50;99.90;;;;;;5006687;28;20447;-85
2023/10/28 01:02:55;;;;;;;64.00;41.00;;;10.40;99.90;;;;;;5022558;28;20037;-84
2023/10/28 01:05:24;;;;;;;83.18;44.75;;;10.40;99.90;;;;;;5018585;28;20059;-76
2023/10/28 01:07:50;;;;;;;62.35;40.78;;;10.40;99.90;;;;;;5007457;28;20041;-75
2023/10/28 01:10:30;;;;;;;62.05;38.75;;;10.40;99.90;;;;;;5016460;28;20042;-76
2023/10/28 01:12:59;;;;;;;135.48;46.72;;;10.40;99.90;;;;;;5021340;28;20110;-76
2023/10/28 01:15:26;;;;;;;66.85;41.00;;;10.30;99.90;;;;;;5018648;28;20128;-76
2023/10/28 01:17:52;;;;;;;63.38;38.83;;;10.30;99.90;;;;;;4995871;28;20046;-76
2023/10/28 01:20:18;;;;;;;66.68;40.72;;;10.30;99.90;;;;;;5000253;28;20506;-76
2023/10/28 01:22:44;;;;;;;61.42;39.35;;;10.20;99.90;;;;;;5007767;28;20357;-76
2023/10/28 01:25:10;;;;;;;102.28;45.13;;;10.20;99.90;;;;;;5015667;28;20041;-76
2023/10/28 01:27:36;;;;;;;59.88;38.70;;;10.20;99.90;;;;;;5022896;28;20192;-76
2023/10/28 01:30:04;;;;;;;59.75;37.92;;;10.20;99.90;;;;;;5018046;28;20038;-76
2023/10/28 01:32:30;;;;;;;113.60;46.17;;;10.20;99.90;;;;;;5024241;28;20431;-76
2023/10/28 01:34:55;;;;;;;67.53;40.88;;;10.10;99.90;;;;;;5006879;28;20040;-76
2023/10/28 01:37:21;;;;;;;64.82;40.65;;;10.10;99.90;;;;;;5020839;28;20057;-76
2023/10/28 01:39:51;;;;;;;87.80;44.42;;;10.10;99.90;;;;;;5020545;28;20045;-76
2023/10/28 01:42:19;;;;;;;69.65;41.08;;;10.10;99.90;;;;;;5020879;28;20037;-76
2023/10/28 01:44:45;;;;;;;61.33;39.25;;;10.10;99.90;;;;;;5014291;28;20073;-76
2023/10/28 01:47:13;;;;;;;90.07;44.50;;;10.10;99.90;;;;;;5018059;28;20618;-76
2023/10/28 01:49:39;;;;;;;56.63;36.85;;;10.10;99.90;;;;;;5006229;28;20041;-76
2023/10/28 01:52:08;;;;;;;56.42;38.38;;;10.10;99.90;;;;;;5019545;28;20045;-75
2023/10/28 01:54:35;;;;;;;80.47;42.88;;;10.10;99.90;;;;;;5019056;28;20045;-76
2023/10/28 01:57:06;;;;;;;67.95;40.92;;;10.00;99.90;;;;;;4998421;28;20042;-76
2023/10/28 01:59:36;;;;;;;58.42;39.08;;;10.00;99.90;;;;;;4999900;28;20495;-76
2023/10/28 02:02:03;;;;;;;65.07;40.22;;;10.00;99.90;;;;;;5010653;28;20050;-76
2023/10/28 02:04:33;;;;;;;67.45;40.83;;;10.00;99.90;;;;;;5016492;28;20052;-76
2023/10/28 02:06:59;;;;;;;;;;;10.00;99.90;;;;;;5009096;28;20045;-76
2023/10/28 02:09:26;;;;;;;61.47;39.45;;;9.90;99.90;;;;;;5011312;28;19936;-76
2023/10/28 02:11:53;;;;;;;73.90;40.55;;;9.90;99.90;;;;;;5000994;28;20138;-77
2023/10/28 02:14:20;;;;;;;71.78;40.88;;;9.90;99.90;;;;;;4998375;28;20468;-76
2023/10/28 02:16:45;;;;;;;123.28;45.28;;;9.90;99.90;;;;;;5023042;28;20064;-76
2023/10/28 02:19:11;;;;;;;50.83;35.35;;;9.90;99.90;;;;;;5015074;28;20531;-76
2023/10/28 02:21:37;;;;;;;52.47;35.88;;;9.90;99.90;;;;;;5014095;28;20542;-76
2023/10/28 02:24:03;;;;;;;52.83;34.90;;;9.90;99.90;;;;;;5024165;28;20448;-76
2023/10/28 02:26:30;;;;;;;80.20;42.30;;;9.80;99.90;;;;;;5013181;28;20057;-76
2023/10/28 02:28:56;;;;;;;76.40;38.92;;;9.80;99.90;;;;;;5008009;28;20052;-76
2023/10/28 02:31:22;;;;;;;52.83;33.65;;;9.80;99.90;;;;;;4992787;28;20524;-76
2023/10/28 02:33:47;;;;;;;47.15;34.15;;;9.80;99.90;;;;;;4994938;28;20144;-76
2023/10/28 02:36:13;;;;;;;58.13;36.45;;;9.70;99.90;;;;;;5016217;28;20047;-75
2023/10/28 02:38:40;;;;;;;50.55;33.92;;;9.80;99.90;;;;;;5016793;28;20057;-76
2023/10/28 02:41:06;;;;;;;50.72;32.53;;;9.70;99.90;;;;;;5008452;28;20046;-76
2023/10/28 02:43:35;;;;;;;57.15;33.97;;;9.70;99.90;;;;;;5003459;28;20088;-76
2023/10/28 02:46:03;;;;;;;43.38;31.73;;;9.70;99.90;;;;;;4997044;28;20045;-76
2023/10/28 02:48:29;;;;;;;41.22;30.77;;;9.70;99.90;;;;;;5026354;28;20049;-76
2023/10/28 02:50:55;;;;;;;57.60;33.38;;;9.70;99.90;;;;;;5011986;28;20052;-76
2023/10/28 02:53:21;;;;;;;39.70;28.33;;;9.70;99.90;;;;;;5011275;28;20045;-76
2023/10/28 02:55:50;;;;;;;43.42;31.80;;;9.70;99.90;;;;;;5005876;28;20050;-76
2023/10/28 02:58:15;;;;;;;38.30;28.52;;;9.70;99.90;;;;;;5023856;28;20071;-76
2023/10/28 03:00:41;;;;;;;38.42;28.73;;;9.70;99.90;;;;;;5004668;28;20054;-76
2023/10/28 03:03:07;;;;;;;45.60;30.83;;;9.70;99.90;;;;;;5024707;28;20814;-76
2023/10/28 03:05:32;;;;;;;68.00;35.65;;;9.70;99.90;;;;;;5005482;28;20059;-76
2023/10/28 03:07:58;;;;;;;40.10;28.42;;;9.60;99.90;;;;;;5008720;28;20044;-76
2023/10/28 03:10:24;;;;;;;39.83;29.73;;;9.70;99.90;;;;;;5007565;28;20184;-76
2023/10/28 03:12:50;;;;;;;49.53;30.75;;;9.60;99.90;;;;;;5010590;28;20519;-76
2023/10/28 03:15:16;;;;;;;54.65;32.40;;;9.60;99.90;;;;;;5008012;28;20033;-76
2023/10/28 03:17:42;;;;;;;42.63;28.75;;;9.60;99.90;;;;;;5022716;28;20037;-76
2023/10/28 03:20:08;;;;;;;38.78;28.17;;;9.60;99.90;;;;;;5019735;28;20547;-76
2023/10/28 03:22:36;;;;;;;39.88;27.67;;;9.60;99.90;;;;;;5008490;28;20085;-76
2023/10/28 03:25:03;;;;;;;48.70;32.45;;;9.60;99.90;;;;;;5007268;28;20152;-76
2023/10/28 03:27:29;;;;;;;39.97;27.40;;;9.60;99.90;;;;;;5002928;28;20096;-76
2023/10/28 03:29:56;;;;;;;48.92;31.70;;;9.60;99.90;;;;;;5016866;28;20734;-75
2023/10/28 03:32:22;;;;;;;32.17;24.92;;;9.60;99.90;;;;;;5010353;28;20111;-76
2023/10/28 03:34:48;;;;;;;37.90;27.83;;;9.60;99.90;;;;;;5023333;28;20488;-76
2023/10/28 03:37:14;;;;;;;42.35;28.55;;;9.50;99.90;;;;;;5007803;28;20087;-75
2023/10/28 03:39:39;;;;;;;41.00;27.65;;;9.50;99.90;;;;;;5005735;28;20056;-76
2023/10/28 03:42:07;;;;;;;55.88;32.95;;;9.50;99.90;;;;;;5022408;28;20042;-76
2023/10/28 03:44:33;;;;;;;38.20;27.30;;;9.60;99.90;;;;;;5005773;28;20049;-76
2023/10/28 03:46:59;;;;;;;46.72;30.23;;;9.50;99.90;;;;;;5041534;28;20128;-76
2023/10/28 03:49:27;;;;;;;40.22;27.95;;;9.50;99.90;;;;;;5022143;28;20042;-76
2023/10/28 03:51:53;;;;;;;41.95;28.77;;;9.60;99.90;;;;;;5009959;28;20052;-76
2023/10/28 03:54:19;;;;;;;39.33;27.30;;;9.50;99.90;;;;;;5024161;28;20052;-76
2023/10/28 03:56:44;;;;;;;38.70;27.58;;;9.50;99.90;;;;;;5008249;28;20125;-76
2023/10/28 03:59:10;;;;;;;35.90;27.60;;;9.50;99.90;;;;;;5024471;28;20041;-76
2023/10/28 04:01:38;;;;;;;38.97;28.27;;;9.50;99.90;;;;;;5021928;28;20049;-76
2023/10/28 04:04:05;;;;;;;54.25;30.30;;;9.50;99.90;;;;;;5014287;28;20053;-76
2023/10/28 04:06:31;;;;;;;30.00;25.17;;;9.50;99.90;;;;;;5023385;28;20053;-76
2023/10/28 04:08:57;;;;;;;37.42;27.98;;;9.50;99.90;;;;;;5001968;28;20045;-76
2023/10/28 04:11:23;;;;;;;47.63;30.52;;;9.50;99.90;;;;;;5017430;28;20037;-76
2023/10/28 04:13:49;;;;;;;44.45;30.67;;;9.50;99.90;;;;;;5025367;28;20124;-75
2023/10/28 04:16:15;;;;;;;65.43;34.22;;;9.50;99.90;;;;;;5005030;28;20121;-76
2023/10/28 04:18:41;;;;;;;40.67;28.55;;;9.50;99.90;;;;;;5024818;28;20033;-76
2023/10/28 04:21:07;;;;;;;42.28;31.70;;;9.60;99.90;;;;;;5021326;28;20056;-76
2023/10/28 04:23:33;;;;;;;33.88;26.58;;;9.50;99.90;;;;;;5011142;28;20335;-76
2023/10/28 04:26:03;;;;;;;39.45;29.73;;;9.60;99.90;;;;;;5005805;28;20041;-76
2023/10/28 04:28:29;;;;;;;45.13;31.30;;;9.70;99.90;;;;;;4996284;28;20045;-76
2023/10/28 04:30:59;;;;;;;46.05;31.50;;;9.60;99.90;;;;;;5003888;28;20079;-76
2023/10/28 04:33:25;;;;;;;44.40;28.55;;;9.60;99.90;;;;;;5020594;28;20053;-76
2023/10/28 04:35:52;;;;;;;46.17;29.50;;;9.60;99.90;;;;;;4999498;28;20458;-76
2023/10/28 04:38:19;;;;;;;45.30;30.23;;;9.60;99.90;;;;;;5019035;28;20053;-76
2023/10/28 04:40:46;;;;;;;45.78;31.00;;;9.60;99.90;;;;;;5003431;28;20052;-76
2023/10/28 04:43:12;;;;;;;44.00;30.65;;;9.60;99.90;;;;;;4999170;28;20492;-76
2023/10/28 04:45:44;;;;;;;51.42;32.03;;;9.70;99.90;;;;;;4999693;28;20103;-76
2023/10/28 04:48:11;;;;;;;48.25;31.35;;;9.70;99.90;;;;;;5006497;28;20535;-76
2023/10/28 04:50:37;;;;;;;48.17;31.83;;;9.70;99.90;;;;;;5010028;28;20056;-76
2023/10/28 04:53:03;;;;;;;46.47;31.52;;;9.70;99.90;;;;;;4998056;28;20041;-76
2023/10/28 04:55:28;;;;;;;48.65;31.83;;;9.80;99.90;;;;;;5008134;28;20057;-76
2023/10/28 04:57:54;;;;;;;69.35;37.10;;;9.80;99.90;;;;;;5016146;28;20163;-76
2023/10/28 05:00:20;;;;;;;47.88;32.55;;;9.80;99.90;;;;;;5025679;28;20160;-76
2023/10/28 05:02:46;;;;;;;58.13;33.85;;;9.80;99.90;;;;;;5009599;28;20571;-76
2023/10/28 05:05:14;;;;;;;59.33;33.40;;;9.80;99.90;;;;;;5021776;28;20386;-76
2023/10/28 05:07:40;;;;;;;45.45;31.83;;;9.80;99.90;;;;;;5016033;28;20045;-76
2023/10/28 05:10:06;;;;;;;64.65;37.50;;;9.90;99.90;;;;;;5017875;28;20048;-75
2023/10/28 05:12:32;;;;;;;84.82;38.28;;;9.90;99.90;;;;;;5022625;28;20041;-76
2023/10/28 05:14:59;;;;;;;53.10;33.55;;;9.90;99.90;;;;;;5017505;28;20037;-76
2023/10/28 05:17:25;;;;;;;47.33;33.30;;;9.90;99.90;;;;;;5017621;28;20053;-76
2023/10/28 05:19:51;;;;;;;40.70;29.00;;;9.90;99.90;;;;;;5001396;28;20057;-75
2023/10/28 05:22:19;;;;;;;52.88;34.17;;;9.90;99.90;;;;;;5009269;28;20041;-76
2023/10/28 05:24:45;;;;;;;46.83;31.95;;;9.90;99.90;;;;;;4997907;28;20512;-76
2023/10/28 05:27:11;;;;;;;48.80;31.52;;;10.00;99.90;;;;;;5019991;28;20029;-76
2023/10/28 05:29:37;;;;;;;49.33;30.58;;;10.00;99.90;;;;;;5002423;28;20066;-76
2023/10/28 05:32:04;;;;;;;55.20;32.30;;;10.00;99.90;;;;;;5024075;28;20042;-76
2023/10/28 05:34:30;;;;;;;57.63;32.40;;;10.00;99.90;;;;;;5020224;28;20060;-76
2023/10/28 05:36:58;;;;;;;41.15;29.58;;;10.00;99.90;;;;;;5023420;28;20511;-76
2023/10/28 05:39:24;;;;;;;42.33;28.75;;;10.00;99.90;;;;;;5007462;28;20571;-76
2023/10/28 05:41:50;;;;;;;49.55;31.35;;;10.00;99.90;;;;;;5008393;28;20448;-76
2023/10/28 05:44:17;;;;;;;50.25;31.15;;;10.00;99.90;;;;;;5024992;28;20042;-76
2023/10/28 05:46:44;;;;;;;40.63;28.20;;;10.00;99.90;;;;;;5013506;28;20061;-76
2023/10/28 05:49:12;;;;;;;45.83;29.45;;;10.00;99.90;;;;;;4995923;28;20452;-76
2023/10/28 05:51:39;;;;;;;46.47;28.85;;;10.10;99.90;;;;;;5003279;28;20073;-76
2023/10/28 05:54:04;;;;;;;38.90;28.42;;;10.10;99.90;;;;;;5016972;28;20077;-76
2023/10/28 05:56:30;;;;;;;36.35;26.13;;;10.10;99.90;;;;;;5012732;28;20045;-76
2023/10/28 05:58:58;;;;;;;44.17;27.92;;;10.10;99.90;;;;;;5021042;28;20044;-76
2023/10/28 06:01:25;;;;;;;31.38;23.90;;;10.10;99.90;;;;;;5023012;28;20049;-76
2023/10/28 06:03:50;;;;;;;36.72;26.20;;;10.10;99.90;;;;;;5019084;28;20119;-76
2023/10/28 06:06:16;;;;;;;34.95;26.23;;;10.10;99.90;;;;;;5016282;28;20030;-76
2023/10/28 06:08:42;;;;;;;40.28;26.52;;;10.10;99.90;;;;;;5004468;28;20052;-76
2023/10/28 06:11:09;;;;;;;46.70;28.33;;;10.10;99.90;;;;;;5003080;28;20049;-75
2023/10/28 06:13:38;;;;;;;45.13;27.63;;;10.20;99.90;;;;;;5017246;28;20118;-76
2023/10/28 06:16:06;;;;;;;38.05;27.08;;;10.20;99.90;;;;;;4995506;28;20045;-75
2023/10/28 06:18:32;;;;;;;35.72;25.13;;;10.20;99.90;;;;;;5028625;28;20124;-75
2023/10/28 06:20:58;;;;;;;29.73;23.08;;;10.20;99.90;;;;;;5021483;28;20128;-75
2023/10/28 06:23:25;;;;;;;31.95;22.20;;;10.20;99.90;;;;;;5010242;28;20132;-76
2023/10/28 06:25:51;;;;;;;28.52;21.58;;;10.20;99.90;;;;;;5003771;28;20563;-76
2023/10/28 06:28:18;;;;;;;42.60;27.20;;;10.20;99.90;;;;;;5022718;28;20125;-75
2023/10/28 06:30:50;;;;;;;27.17;21.30;;;10.20;99.90;;;;;;4996802;28;20122;-76
2023/10/28 06:33:19;;;;;;;31.90;22.85;;;10.20;99.90;;;;;;5007854;28;20061;-75
2023/10/28 06:35:46;;;;;;;29.55;21.00;;;10.30;99.90;;;;;;5010045;28;20042;-76
2023/10/28 06:38:12;;;;;;;24.63;21.23;;;10.20;99.90;;;;;;5015237;28;20041;-76
2023/10/28 06:40:38;;;;;;;22.83;19.23;;;10.20;99.90;;;;;;5011228;28;20057;-75
2023/10/28 06:43:06;;;;;;;21.60;19.17;;;10.20;99.90;;;;;;5021170;28;20068;-76
2023/10/28 06:45:32;;;;;;;23.05;18.60;;;10.20;99.90;;;;;;5017832;28;20068;-76
2023/10/28 06:47:58;;;;;;;32.55;21.65;;;10.20;99.90;;;;;;4998641;28;20491;-76
2023/10/28 06:50:24;;;;;;;27.08;19.42;;;10.30;99.90;;;;;;4993086;28;20129;-75
2023/10/28 06:52:50;;;;;;;24.15;18.75;;;10.30;99.90;;;;;;5017796;28;20056;-75
2023/10/28 06:55:17;;;;;;;23.02;17.90;;;10.30;99.90;;;;;;5000372;28;20046;-75
2023/10/28 06:57:46;;;;;;;32.78;21.23;;;10.30;99.90;;;;;;5016612;28;20085;-75
2023/10/28 07:00:16;;;;;;;23.50;17.83;;;10.30;99.90;;;;;;5019712;28;20054;-75
2023/10/28 07:02:43;;;;;;;22.77;17.77;;;10.30;99.90;;;;;;5014646;28;20068;-75
2023/10/28 07:05:10;;;;;;;21.20;16.00;;;10.30;99.90;;;;;;5001054;28;20117;-75
2023/10/28 07:07:39;;;;;;;23.17;17.33;;;10.30;99.90;;;;;;5005691;28;20064;-75
2023/10/28 07:10:06;;;;;;;18.25;15.75;;;10.30;99.90;;;;;;5016510;28;20029;-75
2023/10/28 07:12:32;;;;;;;21.50;15.57;;;10.30;99.90;;;;;;5020119;28;20057;-75
2023/10/28 07:14:58;;;;;;;19.20;15.80;;;10.30;99.90;;;;;;5023233;28;20509;-75
2023/10/28 07:17:24;;;;;;;17.75;14.65;;;10.30;99.90;;;;;;5018442;28;20132;-75
2023/10/28 07:19:52;;;;;;;17.10;13.93;;;10.30;99.90;;;;;;5011218;28;20045;-75
2023/10/28 07:22:20;;;;;;;16.52;12.98;;;10.30;99.90;;;;;;5006747;28;20048;-75
2023/10/28 07:24:47;;;;;;;18.98;13.15;;;10.30;99.90;;;;;;5028582;28;20103;-75
2023/10/28 07:27:13;;;;;;;20.17;15.27;;;10.20;99.90;;;;;;5025672;28;20101;-75
2023/10/28 07:29:42;;;;;;;16.58;13.50;;;10.20;99.90;;;;;;5023885;28;20120;-84
2023/10/28 07:32:09;;;;;;;19.75;14.20;;;10.30;99.90;;;;;;5024295;28;20119;-86
2023/10/28 07:34:35;;;;;;;16.45;12.68;;;10.40;99.90;;;;;;5005572;28;20080;-75
2023/10/28 07:37:04;;;;;;;18.95;13.63;;;10.30;99.90;;;;;;5022582;28;20061;-75
2023/10/28 07:39:30;;;;;;;16.60;13.32;;;10.30;99.90;;;;;;5023739;28;20045;-75
2023/10/28 07:41:56;;;;;;;15.88;12.32;;;10.30;99.90;;;;;;5032998;28;20052;-75
2023/10/28 07:44:22;;;;;;;15.88;12.40;;;10.30;99.90;;;;;;5018810;28;20045;-75
2023/10/28 07:46:48;;;;;;;15.40;12.05;;;10.40;99.90;;;;;;5020436;28;20060;-75
2023/10/28 07:49:14;;;;;;;16.75;11.88;;;10.30;99.90;;;;;;5005734;28;20041;-75
2023/10/28 07:51:40;;;;;;;17.33;13.68;;;10.30;99.90;;;;;;5008571;28;20049;-75
2023/10/28 07:54:06;;;;;;;16.10;12.25;;;10.30;99.90;;;;;;5021720;28;20072;-75
2023/10/28 07:56:32;;;;;;;15.27;12.25;;;10.30;99.90;;;;;;5022040;28;20516;-75
2023/10/28 07:59:01;;;;;;;17.50;11.88;;;10.40;99.90;;;;;;5019433;28;20075;-75
2023/10/28 08:01:31;;;;;;;16.65;11.98;;;10.40;99.90;;;;;;5023383;28;20042;-75
2023/10/28 08:03:57;;;;;;;15.40;12.30;;;10.40;99.90;;;;;;5020333;28;20128;-75
2023/10/28 08:06:23;;;;;;;20.70;13.15;;;10.40;99.90;;;;;;5039590;28;20075;-75
2023/10/28 08:08:53;;;;;;;12.48;10.30;;;10.40;99.90;;;;;;5007149;28;20117;-75
2023/10/28 08:11:21;;;;;;;15.88;11.55;;;10.40;99.90;;;;;;5019082;28;20042;-74
2023/10/28 08:13:48;;;;;;;15.82;10.73;;;10.40;99.90;;;;;;5020581;28;20049;-75
2023/10/28 08:16:18;;;;;;;19.25;12.90;;;10.40;99.90;;;;;;5025313;28;20090;-75
2023/10/28 08:18:45;;;;;;;12.55;10.30;;;10.50;99.90;;;;;;5019412;28;20412;-75
2023/10/28 08:21:14;;;;;;;13.23;10.43;;;10.50;99.90;;;;;;5024397;28;20041;-75
2023/10/28 08:23:44;;;;;;;17.20;11.65;;;10.50;99.90;;;;;;5024437;28;20922;-75
2023/10/28 08:26:17;;;;;;;13.43;10.13;;;10.50;99.90;;;;;;5005387;28;20458;-74
2023/10/28 08:28:44;;;;;;;17.25;10.00;;;10.50;99.90;;;;;;5035905;28;20484;-75
2023/10/28 08:31:10;;;;;;;12.38;9.82;;;10.50;99.90;;;;;;5005086;28;20531;-75
2023/10/28 08:33:36;;;;;;;12.68;9.93;;;10.60;99.90;;;;;;5021286;28;20085;-75
2023/10/28 08:36:03;;;;;;;15.88;10.98;;;10.60;99.90;;;;;;5018957;28;20053;-75
2023/10/28 08:38:29;;;;;;;12.18;9.75;;;10.60;99.90;;;;;;5005113;28;20049;-75
2023/10/28 08:40:58;;;;;;;13.93;10.10;;;10.60;99.90;;;;;;5021647;28;20514;-75
2023/10/28 08:43:26;;;;;;;13.68;9.38;;;10.70;99.90;;;;;;5007225;28;20072;-75
2023/10/28 08:45:53;;;;;;;10.95;9.27;;;10.70;99.90;;;;;;5038899;28;20498;-75
2023/10/28 08:48:20;;;;;;;13.50;9.75;;;10.70;99.90;;;;;;5004590;28;20037;-75
2023/10/28 08:50:53;;;;;;;12.60;9.02;;;10.70;99.90;;;;;;5009738;28;20057;-75
2023/10/28 08:53:21;;;;;;;13.30;8.90;;;10.70;99.90;;;;;;5016603;28;20128;-75
2023/10/28 08:55:49;;;;;;;13.57;8.68;;;10.70;99.90;;;;;;5019822;28;20103;-75
2023/10/28 08:58:18;;;;;;;11.73;9.55;;;10.70;99.90;;;;;;5018887;28;20400;-75
2023/10/28 09:00:46;;;;;;;10.80;8.23;;;10.70;99.90;;;;;;5019231;28;20081;-75
2023/10/28 09:03:13;;;;;;;12.98;8.85;;;10.70;99.90;;;;;;5004830;28;20124;-75
2023/10/28 09:05:42;;;;;;;12.63;9.60;;;10.70;99.90;;;;;;5016340;28;20088;-75
2023/10/28 09:08:08;;;;;;;12.40;9.45;;;10.80;99.90;;;;;;5024123;28;20132;-75
2023/10/28 09:10:37;;;;;;;12.88;9.40;;;10.80;99.90;;;;;;5015302;28;20124;-75
2023/10/28 09:13:07;;;;;;;15.57;10.55;;;10.80;99.90;;;;;;5023184;28;20503;-75
2023/10/28 09:15:39;;;;;;;14.13;9.90;;;10.80;99.90;;;;;;5015843;28;20488;-74
2023/10/28 09:18:08;;;;;;;12.00;10.20;;;10.90;99.90;;;;;;5011230;28;20533;-75
2023/10/28 09:20:37;;;;;;;17.90;11.70;;;10.90;99.90;;;;;;5020779;28;20053;-75
2023/10/28 09:23:04;;;;;;;12.48;10.32;;;10.90;99.90;;;;;;5020722;28;20512;-75
2023/10/28 09:25:30;;;;;;;14.60;10.15;;;11.00;99.90;;;;;;5017454;28;20049;-74
2023/10/28 09:27:56;;;;;;;10.93;9.15;;;11.00;99.90;;;;;;5020362;28;20052;-75
2023/10/28 09:30:22;;;;;;;11.48;9.48;;;11.00;99.90;;;;;;5020667;28;20045;-75
2023/10/28 09:32:48;;;;;;;15.27;10.80;;;11.00;99.90;;;;;;5038888;28;20048;-75
2023/10/28 09:35:16;;;;;;;16.77;10.30;;;11.00;99.90;;;;;;5020479;28;20060;-75
2023/10/28 09:37:42;;;;;;;13.65;10.43;;;11.10;99.90;;;;;;5003572;28;20492;-74
2023/10/28 09:40:12;;;;;;;13.57;9.52;;;11.10;99.90;;;;;;4998695;28;20479;-74
2023/10/28 09:42:39;;;;;;;13.50;9.00;;;11.10;99.90;;;;;;5013352;28;20106;-74
2023/10/28 09:45:08;;;;;;;13.57;9.05;;;11.20;99.90;;;;;;5019659;28;20045;-74
2023/10/28 09:47:57;;;;;;;13.60;10.38;;;11.20;99.90;;;;;;5005244;28;20053;-75
2023/10/28 09:50:25;;;;;;;10.43;8.63;;;11.30;99.90;;;;;;5017692;28;20045;-75
2023/10/28 09:52:53;;;;;;;13.90;9.38;;;11.30;99.90;;;;;;5017144;28;20488;-74
2023/10/28 09:55:26;;;;;;;10.90;8.32;;;11.30;99.90;;;;;;5004255;28;20069;-75
2023/10/28 09:58:08;;;;;;;12.13;8.52;;;11.30;99.90;;;;;;4999497;28;20049;-75
2023/10/28 10:00:37;;;;;;;12.30;8.43;;;11.30;99.90;;;;;;5018199;28;20057;-75
2023/10/28 10:03:34;;;;;;;13.80;8.05;;;11.30;99.90;;;;;;5014304;28;20045;-75
2023/10/28 10:06:01;;;;;;;10.40;7.88;;;11.30;99.90;;;;;;5017053;28;20057;-75
2023/10/28 10:08:27;;;;;;;11.73;8.45;;;11.30;99.90;;;;;;5021136;28;20124;-74
2023/10/28 10:10:55;;;;;;;9.85;7.70;;;11.30;99.90;;;;;;5012979;28;20780;-74
2023/10/28 10:13:22;;;;;;;11.85;8.05;;;11.30;99.90;;;;;;5019082;28;20504;-75
2023/10/28 10:16:05;;;;;;;15.30;9.05;;;11.30;99.90;;;;;;4996066;28;20037;-74
2023/10/28 10:18:40;;;;;;;11.85;7.95;;;11.40;99.90;;;;;;5020463;28;20091;-74
2023/10/28 10:21:12;;;;;;;12.82;8.00;;;11.40;99.90;;;;;;5007368;28;20045;-74
2023/10/28 10:23:49;;;;;;;15.60;7.80;;;11.40;99.90;;;;;;5003147;28;20055;-74
2023/10/28 10:26:20;;;;;;;11.10;7.95;;;11.40;99.90;;;;;;5006815;28;20050;-75
2023/10/28 10:28:46;;;;;;;13.70;7.93;;;11.40;99.90;;;;;;5033666;28;20443;-74
2023/10/28 10:31:12;;;;;;;11.35;6.78;;;11.50;99.90;;;;;;5016094;28;20045;-74
2023/10/28 10:33:38;;;;;;;10.43;7.32;;;11.50;99.90;;;;;;5017758;28;20042;-74
2023/10/28 10:36:27;;;;;;;10.63;7.05;;;11.50;99.90;;;;;;5020197;28;20064;-74
2023/10/28 10:38:53;;;;;;;10.65;7.05;;;11.60;99.90;;;;;;5019381;28;20057;-74
2023/10/28 10:41:28;;;;;;;11.63;6.93;;;11.50;99.90;;;;;;5015438;28;20100;-74
2023/10/28 10:43:54;;;;;;;8.52;6.38;;;11.50;99.90;;;;;;5019468;28;20045;-74
2023/10/28 10:46:20;;;;;;;12.18;6.90;;;11.60;99.90;;;;;;5018333;28;20038;-74
2023/10/28 10:48:47;;;;;;;9.00;7.15;;;11.60;99.90;;;;;;5020848;28;20068;-74
2023/10/28 10:51:15;;;;;;;10.82;6.20;;;11.60;99.90;;;;;;5035189;28;20052;-74
2023/10/28 10:53:44;;;;;;;11.30;6.00;;;11.70;99.90;;;;;;5019776;28;20480;-75
2023/10/28 10:56:22;;;;;;;15.48;7.13;;;11.70;99.90;;;;;;5013965;28;20490;-75
2023/10/28 10:58:48;;;;;;;11.60;6.22;;;11.80;99.90;;;;;;5017423;28;20041;-75
2023/10/28 11:01:15;;;;;;;10.98;6.72;;;11.80;99.90;;;;;;5021742;28;20146;-75
2023/10/28 11:03:41;;;;;;;13.88;7.00;;;11.80;99.90;;;;;;5006919;28;20132;-74
2023/10/28 11:06:08;;;;;;;9.70;6.30;;;11.90;99.90;;;;;;5021678;28;20034;-74
2023/10/28 11:08:34;;;;;;;12.40;6.50;;;12.00;99.90;;;;;;5013589;28;20056;-75
2023/10/28 11:11:03;;;;;;;10.10;6.00;;;12.00;99.90;;;;;;5003898;28;20057;-74
2023/10/28 11:13:29;;;;;;;10.07;6.43;;;12.00;99.90;;;;;;5011349;28;20054;-74
2023/10/28 11:15:55;;;;;;;13.13;7.50;;;12.00;99.90;;;;;;5025150;28;20077;-75
2023/10/28 11:18:21;;;;;;;8.77;6.00;;;12.00;99.90;;;;;;5040911;28;20045;-74
2023/10/28 11:20:49;;;;;;;10.88;6.15;;;12.00;99.90;;;;;;5039995;28;20668;-74
2023/10/28 11:23:19;;;;;;;8.27;5.82;;;12.00;99.90;;;;;;4996110;28;20517;-74
2023/10/28 11:25:48;;;;;;;9.43;5.32;;;12.00;99.90;;;;;;5022949;28;20893;-74
2023/10/28 11:28:14;;;;;;;10.10;5.45;;;12.10;99.90;;;;;;4998424;28;20041;-74
2023/10/28 11:30:50;;;;;;;10.57;6.40;;;12.10;99.90;;;;;;5023840;28;20037;-74
2023/10/28 11:33:16;;;;;;;9.38;5.05;;;12.10;99.90;;;;;;5024594;28;20042;-74
2023/10/28 11:35:42;;;;;;;7.15;5.35;;;12.20;99.90;;;;;;5010742;28;20056;-74
2023/10/28 11:38:10;;;;;;;7.70;4.90;;;12.20;99.90;;;;;;5023117;28;20045;-75
2023/10/28 11:40:37;;;;;;;7.35;5.60;;;12.20;99.90;;;;;;5015386;28;20052;-75
2023/10/28 11:43:05;;;;;;;8.75;4.68;;;12.20;99.90;;;;;;5029946;28;20044;-74
2023/10/28 11:45:30;;;;;;;8.27;4.80;;;12.20;99.90;;;;;;5005360;28;20056;-74
2023/10/28 11:47:56;;;;;;;8.82;4.93;;;12.20;99.90;;;;;;5015029;28;20046;-74
2023/10/28 11:50:22;;;;;;;7.18;4.63;;;12.30;99.90;;;;;;5017977;28;20403;-74
2023/10/28 11:52:49;;;;;;;9.57;4.57;;;12.30;99.90;;;;;;5019239;28;20111;-74
2023/10/28 11:55:14;;;;;;;6.93;4.15;;;12.30;99.90;;;;;;5003444;28;20412;-74
2023/10/28 11:57:40;;;;;;;7.75;3.95;;;12.40;99.90;;;;;;5024426;28;20060;-75
2023/10/28 12:00:09;;;;;;;9.40;4.60;;;12.40;99.90;;;;;;5021964;28;20204;-74
2023/10/28 12:02:35;;;;;;;7.95;4.05;;;12.50;99.90;;;;;;5014862;28;20048;-74
2023/10/28 12:05:01;;;;;;;7.55;4.65;;;12.60;99.90;;;;;;5019464;28;20050;-74
2023/10/28 12:07:26;;;;;;;7.32;4.50;;;12.60;99.90;;;;;;5020720;28;20725;-74
2023/10/28 12:09:55;;;;;;;9.25;4.00;;;12.60;99.90;;;;;;5020262;28;20042;-82
2023/10/28 12:12:21;;;;;;;10.70;4.65;;;12.70;99.90;;;;;;5007223;28;20065;-81
2023/10/28 12:14:48;;;;;;;8.60;4.22;;;12.50;99.90;;;;;;5018876;28;20073;-81
2023/10/28 12:17:13;;;;;;;6.97;3.63;;;12.50;99.90;;;;;;4999077;28;20179;-81
2023/10/28 12:19:42;;;;;;;12.63;4.07;;;12.50;99.90;;;;;;5000236;28;20671;-81
2023/10/28 12:22:08;;;;;;;8.73;4.03;;;12.50;99.90;;;;;;5017335;28;20038;-81
2023/10/28 12:24:34;;;;;;;10.63;3.67;;;12.50;99.90;;;;;;5020270;28;20466;-82
2023/10/28 12:27:00;;;;;;;9.73;4.00;;;12.50;99.90;;;;;;5019813;28;20120;-80
2023/10/28 12:29:26;;;;;;;8.65;3.50;;;12.50;99.90;;;;;;5008027;28;20129;-81
2023/10/28 12:31:52;;;;;;;13.32;4.68;;;12.60;99.90;;;;;;5021160;28;20502;-80
2023/10/28 12:34:18;;;;;;;8.05;3.70;;;12.60;99.90;;;;;;5037094;28;20041;-80